createdAt,value
2023-08-08T00:01:25.124Z,18.3
2023-08-08T00:04:25.061Z,18.3
2023-08-08T00:07:25.088Z,18.3
2023-08-08T00:10:25.139Z,18.3
2023-08-08T00:13:25.082Z,18.3
2023-08-08T00:16:25.092Z,18.3
2023-08-08T00:19:25.091Z,18.3
2023-08-08T00:22:25.094Z,18.3
2023-08-08T00:25:25.092Z,18.3
2023-08-08T00:28:25.094Z,18.3
2023-08-08T00:31:25.155Z,18.3
2023-08-08T00:34:25.102Z,18.3
2023-08-08T00:37:25.121Z,18.3
2023-08-08T00:40:25.112Z,18.3
2023-08-08T00:43:25.121Z,18.3
2023-08-08T00:46:25.176Z,18.3
2023-08-08T00:49:25.134Z,18.3
2023-08-08T00:52:25.140Z,18.3
2023-08-08T00:55:25.163Z,18.2
2023-08-08T00:58:25.140Z,18.2
2023-08-08T01:01:25.151Z,18.2
2023-08-08T01:04:25.159Z,18.2
2023-08-08T01:07:25.163Z,18.2
2023-08-08T01:10:25.195Z,18.2
2023-08-08T01:13:25.175Z,18.2
2023-08-08T01:16:25.216Z,18.2
2023-08-08T01:19:25.166Z,18.2
2023-08-08T01:22:25.173Z,18.2
2023-08-08T01:25:25.174Z,18.2
2023-08-08T01:28:25.185Z,18.2
2023-08-08T01:31:25.194Z,18.2
2023-08-08T01:34:25.190Z,18.2
2023-08-08T01:37:25.204Z,18.1
2023-08-08T01:40:25.194Z,18.1
2023-08-08T01:43:25.201Z,18.1
2023-08-08T01:46:25.251Z,18.1
2023-08-08T01:49:25.215Z,18.1
2023-08-08T01:52:25.213Z,18.1
2023-08-08T01:55:25.234Z,18.1
2023-08-08T01:58:25.229Z,18.1
2023-08-08T02:01:25.237Z,18.1
2023-08-08T02:04:25.235Z,18.1
2023-08-08T02:07:25.247Z,18.1
2023-08-08T02:10:25.251Z,18.1
2023-08-08T02:13:25.257Z,18.1
2023-08-08T02:16:25.280Z,18.1
2023-08-08T02:19:25.267Z,18.1
2023-08-08T02:22:25.257Z,18.1
2023-08-08T02:25:25.277Z,18.1
2023-08-08T02:28:25.277Z,18.1
2023-08-08T02:31:25.367Z,18.1
2023-08-08T02:34:25.293Z,18.1
2023-08-08T02:37:25.282Z,18.1
2023-08-08T02:40:25.297Z,18.1
2023-08-08T02:43:25.296Z,18.1
2023-08-08T02:46:25.324Z,18.1
2023-08-08T02:49:25.306Z,18
2023-08-08T02:52:25.317Z,18.1
2023-08-08T02:55:25.320Z,18
2023-08-08T02:58:25.428Z,18
2023-08-08T03:01:25.349Z,18
2023-08-08T03:04:25.420Z,18
2023-08-08T03:07:25.335Z,18
2023-08-08T03:10:25.344Z,18
2023-08-08T03:13:25.337Z,18
2023-08-08T03:16:25.375Z,18
2023-08-08T03:19:25.345Z,18
2023-08-08T03:22:25.387Z,18
2023-08-08T03:25:25.362Z,18
2023-08-08T03:28:25.367Z,17.9
2023-08-08T03:31:25.378Z,18
2023-08-08T03:34:25.433Z,17.9
2023-08-08T03:37:25.376Z,17.9
2023-08-08T03:40:25.377Z,17.9
2023-08-08T03:43:25.379Z,17.9
2023-08-08T03:46:25.430Z,17.9
2023-08-08T03:49:25.406Z,17.9
2023-08-08T03:52:25.410Z,17.9
2023-08-08T03:55:25.415Z,17.9
2023-08-08T03:58:25.417Z,17.9
2023-08-08T04:01:25.449Z,17.9
2023-08-08T04:04:25.427Z,17.9
2023-08-08T04:07:25.422Z,17.9
2023-08-08T04:10:25.429Z,17.9
2023-08-08T04:13:25.443Z,17.9
2023-08-08T04:16:27.032Z,17.9
2023-08-08T04:19:25.450Z,17.9
2023-08-08T04:22:25.458Z,17.9
2023-08-08T04:25:25.466Z,17.9
2023-08-08T04:28:25.479Z,17.9
2023-08-08T04:31:25.596Z,17.9
2023-08-08T04:34:25.467Z,17.9
2023-08-08T04:37:25.472Z,17.9
2023-08-08T04:40:25.507Z,17.8
2023-08-08T04:43:25.476Z,17.8
2023-08-08T04:46:25.486Z,17.9
2023-08-08T04:49:25.483Z,17.8
2023-08-08T04:52:25.493Z,17.8
2023-08-08T04:55:25.528Z,17.8
2023-08-08T04:58:25.499Z,17.8
2023-08-08T05:01:25.517Z,17.8
2023-08-08T05:04:25.517Z,17.8
2023-08-08T05:07:25.521Z,17.8
2023-08-08T05:10:25.532Z,17.8
2023-08-08T05:13:25.522Z,17.8
2023-08-08T05:16:25.562Z,17.8
2023-08-08T05:19:25.542Z,17.8
2023-08-08T05:22:25.540Z,17.8
2023-08-08T05:25:25.534Z,17.8
2023-08-08T05:28:25.541Z,17.8
2023-08-08T05:31:25.551Z,17.8
2023-08-08T05:34:25.556Z,17.8
2023-08-08T05:37:25.574Z,17.8
2023-08-08T05:40:25.557Z,17.8
2023-08-08T05:43:25.648Z,17.8
2023-08-08T05:46:25.646Z,17.8
2023-08-08T05:49:25.576Z,17.8
2023-08-08T05:52:25.584Z,17.8
2023-08-08T05:55:25.587Z,17.8
2023-08-08T05:58:25.581Z,17.8
2023-08-08T06:01:25.623Z,17.8
2023-08-08T06:04:25.603Z,17.7
2023-08-08T06:07:25.593Z,17.7
2023-08-08T06:10:25.603Z,17.7
2023-08-08T06:13:25.605Z,17.7
2023-08-08T06:16:25.659Z,17.7
2023-08-08T06:19:25.605Z,17.7
2023-08-08T06:22:25.618Z,17.7
2023-08-08T06:25:25.622Z,17.7
2023-08-08T06:28:25.629Z,17.7
2023-08-08T06:31:25.638Z,17.7
2023-08-08T06:34:25.631Z,17.7
2023-08-08T06:37:25.626Z,17.7
2023-08-08T06:40:25.638Z,17.7
2023-08-08T06:43:25.635Z,17.7
2023-08-08T06:46:25.717Z,17.6
2023-08-08T06:49:25.653Z,17.7
2023-08-08T06:52:25.663Z,17.6
2023-08-08T06:55:25.666Z,17.6
2023-08-08T06:58:25.657Z,17.6
2023-08-08T07:01:25.705Z,17.6
2023-08-08T07:04:25.687Z,17.6
2023-08-08T07:07:25.671Z,17.6
2023-08-08T07:10:25.834Z,17.6
2023-08-08T07:13:25.685Z,17.6
2023-08-08T07:16:25.687Z,17.6
2023-08-08T07:19:25.697Z,17.6
2023-08-08T07:22:25.697Z,17.6
2023-08-08T07:25:25.704Z,17.6
2023-08-08T07:28:25.700Z,17.6
2023-08-08T07:31:25.735Z,17.6
2023-08-08T07:34:25.708Z,17.6
2023-08-08T07:37:25.701Z,17.6
2023-08-08T07:40:25.744Z,17.6
2023-08-08T07:43:25.721Z,17.6
2023-08-08T07:46:25.736Z,17.6
2023-08-08T07:49:25.729Z,17.6
2023-08-08T07:52:25.722Z,17.6
2023-08-08T07:55:25.732Z,17.6
2023-08-08T07:58:25.764Z,17.6
2023-08-08T08:01:25.751Z,17.6
2023-08-08T08:04:25.730Z,17.6
2023-08-08T08:07:25.735Z,17.6
2023-08-08T08:10:25.740Z,17.6
2023-08-08T08:13:25.759Z,17.6
2023-08-08T08:16:25.782Z,17.6
2023-08-08T08:19:25.764Z,17.6
2023-08-08T08:22:25.783Z,17.6
2023-08-08T08:25:25.772Z,17.6
2023-08-08T08:28:25.809Z,17.6
2023-08-08T08:31:25.853Z,17.6
2023-08-08T08:34:25.821Z,17.6
2023-08-08T08:37:25.835Z,17.6
2023-08-08T08:40:25.853Z,17.6
2023-08-08T08:43:25.867Z,17.6
2023-08-08T08:46:25.903Z,17.5
2023-08-08T08:49:25.874Z,17.6
2023-08-08T08:52:25.879Z,17.5
2023-08-08T08:55:25.881Z,17.5
2023-08-08T08:58:25.894Z,17.5
2023-08-08T09:01:25.891Z,17.5
2023-08-08T09:04:25.889Z,17.5
2023-08-08T09:07:25.892Z,17.5
2023-08-08T09:10:25.898Z,17.5
2023-08-08T09:13:25.896Z,17.5
2023-08-08T09:16:25.931Z,17.5
2023-08-08T09:19:25.941Z,17.5
2023-08-08T09:22:25.924Z,17.5
2023-08-08T09:25:25.924Z,17.5
2023-08-08T09:28:25.930Z,17.5
2023-08-08T09:31:25.944Z,17.5
2023-08-08T09:34:25.940Z,17.5
2023-08-08T09:37:25.959Z,17.5
2023-08-08T09:40:25.962Z,17.5
2023-08-08T09:43:25.955Z,17.5
2023-08-08T09:46:25.998Z,17.5
2023-08-08T09:49:25.982Z,17.5
2023-08-08T09:52:25.971Z,17.5
2023-08-08T09:55:25.968Z,17.5
2023-08-08T09:58:26.891Z,17.5
2023-08-08T10:01:26.000Z,17.5
2023-08-08T10:04:25.987Z,17.5
2023-08-08T10:07:25.999Z,17.5
2023-08-08T10:10:25.999Z,17.5
2023-08-08T10:13:26.030Z,17.5
2023-08-08T10:16:26.026Z,17.5
2023-08-08T10:19:26.014Z,17.5
2023-08-08T10:22:26.112Z,17.5
2023-08-08T10:25:26.027Z,17.5
2023-08-08T10:28:27.556Z,17.5
2023-08-08T10:31:26.103Z,17.5
2023-08-08T10:34:26.039Z,17.5
2023-08-08T10:37:26.059Z,17.5
2023-08-08T10:40:26.054Z,17.5
2023-08-08T10:43:26.057Z,17.5
2023-08-08T10:46:26.111Z,17.5
2023-08-08T10:49:26.073Z,17.5
2023-08-08T10:52:26.069Z,17.5
2023-08-08T10:55:26.077Z,17.5
2023-08-08T10:58:26.084Z,17.5
2023-08-08T11:01:26.097Z,17.5
2023-08-08T11:04:26.091Z,17.5
2023-08-08T11:07:26.097Z,17.5
2023-08-08T11:10:26.120Z,17.5
2023-08-08T11:13:26.103Z,17.5
2023-08-08T11:16:26.112Z,17.5
2023-08-08T11:19:26.109Z,17.5
2023-08-08T11:22:26.107Z,17.5
2023-08-08T11:25:26.112Z,17.5
2023-08-08T11:28:26.118Z,17.5
2023-08-08T11:31:26.152Z,17.5
2023-08-08T11:34:26.126Z,17.5
2023-08-08T11:37:26.127Z,17.5
2023-08-08T11:40:26.128Z,17.5
2023-08-08T11:43:26.154Z,17.5
2023-08-08T11:46:26.203Z,17.5
2023-08-08T11:49:26.148Z,17.5
2023-08-08T11:52:26.153Z,17.5
2023-08-08T11:55:26.151Z,17.5
2023-08-08T11:58:26.185Z,17.5
2023-08-08T12:01:26.201Z,17.5
2023-08-08T12:04:27.744Z,17.5
2023-08-08T12:07:26.174Z,17.5
2023-08-08T12:10:26.200Z,17.5
2023-08-08T12:13:26.185Z,17.5
2023-08-08T12:16:26.195Z,17.6
2023-08-08T12:19:26.192Z,17.6
2023-08-08T12:22:26.202Z,17.5
2023-08-08T12:25:26.194Z,17.6
2023-08-08T12:28:26.196Z,17.6
2023-08-08T12:31:26.288Z,17.6
2023-08-08T12:34:26.202Z,17.6
2023-08-08T12:37:26.210Z,17.6
2023-08-08T12:40:26.220Z,17.6
2023-08-08T12:43:26.221Z,17.6
2023-08-08T12:46:26.251Z,17.6
2023-08-08T12:49:26.222Z,17.6
2023-08-08T12:52:26.676Z,17.6
2023-08-08T12:55:26.243Z,17.6
2023-08-08T12:58:27.013Z,17.6
2023-08-08T13:01:26.255Z,17.6
2023-08-08T13:04:26.269Z,17.6
2023-08-08T13:07:26.300Z,17.6
2023-08-08T13:10:26.266Z,17.6
2023-08-08T13:13:26.271Z,17.6
2023-08-08T13:16:26.285Z,17.6
2023-08-08T13:19:26.267Z,17.6
2023-08-08T13:22:26.278Z,17.6
2023-08-08T13:25:26.290Z,17.6
2023-08-08T13:28:26.287Z,17.6
2023-08-08T13:31:26.295Z,17.6
2023-08-08T13:34:26.303Z,17.6
2023-08-08T13:37:26.303Z,17.6
2023-08-08T13:40:26.309Z,17.6
2023-08-08T13:43:26.319Z,17.6
2023-08-08T13:46:26.330Z,17.6
2023-08-08T13:49:26.321Z,17.6
2023-08-08T13:52:26.341Z,17.6
2023-08-08T13:55:26.345Z,17.6
2023-08-08T13:58:26.356Z,17.6
2023-08-08T14:01:26.389Z,17.6
2023-08-08T14:04:26.343Z,17.7
2023-08-08T14:07:26.359Z,17.6
2023-08-08T14:10:26.364Z,17.7
2023-08-08T14:13:26.369Z,17.7
2023-08-08T14:16:26.410Z,17.7
2023-08-08T14:19:26.383Z,17.7
2023-08-08T14:22:26.370Z,17.7
2023-08-08T14:25:26.370Z,17.7
2023-08-08T14:28:28.798Z,17.7
2023-08-08T14:31:26.396Z,17.7
2023-08-08T14:34:26.391Z,17.7
2023-08-08T14:37:26.400Z,17.7
2023-08-08T14:40:26.408Z,17.7
2023-08-08T14:43:26.409Z,17.8
2023-08-08T14:46:26.403Z,17.7
2023-08-08T14:49:26.414Z,17.8
2023-08-08T14:52:27.274Z,17.8
2023-08-08T14:55:26.427Z,17.8
2023-08-08T14:58:27.167Z,17.8
2023-08-08T15:01:26.467Z,17.8
2023-08-08T15:04:26.449Z,17.8
2023-08-08T15:07:26.483Z,17.8
2023-08-08T15:10:26.464Z,17.8
2023-08-08T15:13:26.443Z,17.8
2023-08-08T15:16:26.454Z,17.8
2023-08-08T15:19:26.459Z,17.8
2023-08-08T15:22:26.455Z,17.8
2023-08-08T15:25:26.463Z,17.8
2023-08-08T15:28:26.476Z,17.8
2023-08-08T15:31:26.490Z,17.8
2023-08-08T15:34:26.478Z,17.8
2023-08-08T15:37:26.484Z,17.8
2023-08-08T15:40:26.499Z,17.8
2023-08-08T15:43:26.492Z,17.8
2023-08-08T15:46:26.536Z,17.8
2023-08-08T15:49:26.502Z,17.8
2023-08-08T15:52:26.507Z,17.8
2023-08-08T15:55:26.526Z,17.8
2023-08-08T15:58:26.511Z,17.8
2023-08-08T16:01:26.555Z,17.8
2023-08-08T16:04:26.525Z,17.8
2023-08-08T16:07:26.529Z,17.8
2023-08-08T16:10:26.542Z,17.8
2023-08-08T16:13:26.539Z,17.8
2023-08-08T16:16:26.551Z,17.8
2023-08-08T16:19:26.572Z,17.8
2023-08-08T16:22:26.553Z,17.8
2023-08-08T16:25:26.563Z,17.8
2023-08-08T16:28:26.564Z,17.9
2023-08-08T16:31:26.604Z,17.9
2023-08-08T16:34:26.595Z,17.9
2023-08-08T16:37:26.591Z,17.9
2023-08-08T16:40:26.580Z,17.9
2023-08-08T16:43:26.589Z,17.9
2023-08-08T16:46:26.606Z,17.9
2023-08-08T16:49:26.590Z,17.9
2023-08-08T16:52:26.599Z,17.9
2023-08-08T16:55:26.602Z,17.9
2023-08-08T16:58:26.609Z,17.9
2023-08-08T17:01:26.609Z,17.9
2023-08-08T17:04:26.621Z,17.9
2023-08-08T17:07:26.624Z,17.9
2023-08-08T17:10:26.625Z,17.9
2023-08-08T17:13:26.630Z,17.9
2023-08-08T17:16:26.681Z,17.9
2023-08-08T17:19:26.636Z,17.9
2023-08-08T17:22:26.652Z,17.9
2023-08-08T17:25:26.680Z,17.9
2023-08-08T17:28:26.647Z,17.9
2023-08-08T17:31:26.655Z,17.9
2023-08-08T17:34:26.656Z,17.9
2023-08-08T17:37:26.655Z,17.9
2023-08-08T17:40:42.090Z,17.9
2023-08-08T17:43:26.682Z,17.9
2023-08-08T17:46:26.697Z,17.9
2023-08-08T17:49:26.692Z,17.9
2023-08-08T17:52:26.681Z,17.9
2023-08-08T17:55:27.770Z,17.9
2023-08-08T17:58:26.701Z,17.9
2023-08-08T18:01:26.717Z,17.9
2023-08-08T18:04:26.695Z,17.9
2023-08-08T18:07:26.704Z,17.9
2023-08-08T18:10:26.711Z,17.9
2023-08-08T18:13:26.711Z,17.9
2023-08-08T18:16:26.755Z,17.9
2023-08-08T18:19:26.724Z,17.9
2023-08-08T18:22:26.722Z,17.9
2023-08-08T18:25:26.729Z,17.9
2023-08-08T18:28:26.733Z,17.9
2023-08-08T18:31:26.753Z,17.9
2023-08-08T18:34:26.736Z,17.9
2023-08-08T18:37:26.738Z,17.9
2023-08-08T18:40:26.752Z,17.9
2023-08-08T18:43:26.750Z,17.9
2023-08-08T18:46:26.813Z,17.9
2023-08-08T18:49:26.774Z,17.9
2023-08-08T18:52:26.786Z,17.9
2023-08-08T18:55:26.768Z,17.9
2023-08-08T18:58:26.778Z,17.9
2023-08-08T19:01:26.794Z,17.9
2023-08-08T19:04:26.796Z,17.9
2023-08-08T19:07:26.786Z,17.9
2023-08-08T19:10:26.788Z,17.9
2023-08-08T19:13:26.794Z,17.9
2023-08-08T19:16:26.818Z,17.9
2023-08-08T19:19:26.803Z,17.9
2023-08-08T19:22:26.808Z,17.9
2023-08-08T19:25:26.809Z,17.9
2023-08-08T19:28:26.830Z,17.9
2023-08-08T19:31:26.833Z,17.9
2023-08-08T19:34:26.838Z,17.9
2023-08-08T19:37:26.843Z,17.9
2023-08-08T19:40:26.852Z,17.9
2023-08-08T19:43:26.862Z,17.9
2023-08-08T19:46:26.867Z,17.9
2023-08-08T19:49:26.851Z,17.9
2023-08-08T19:52:26.858Z,17.9
2023-08-08T19:55:26.860Z,17.9
2023-08-08T19:58:26.861Z,17.9
2023-08-08T20:01:26.900Z,17.9
2023-08-08T20:04:26.904Z,17.9
2023-08-08T20:07:26.882Z,17.9
2023-08-08T20:10:26.879Z,17.9
2023-08-08T20:13:26.880Z,17.9
2023-08-08T20:16:26.968Z,17.9
2023-08-08T20:19:26.890Z,17.9
2023-08-08T20:22:26.891Z,17.9
2023-08-08T20:25:26.892Z,17.9
2023-08-08T20:28:26.898Z,17.9
2023-08-08T20:31:26.927Z,17.9
2023-08-08T20:34:26.913Z,17.9
2023-08-08T20:37:26.916Z,17.9
2023-08-08T20:40:26.918Z,17.9
2023-08-08T20:43:26.948Z,17.9
2023-08-08T20:46:26.929Z,17.9
2023-08-08T20:49:26.963Z,17.9
2023-08-08T20:52:26.981Z,17.9
2023-08-08T20:55:26.947Z,17.9
2023-08-08T20:58:26.983Z,17.9
2023-08-08T21:01:26.987Z,17.9
2023-08-08T21:04:26.981Z,17.9
2023-08-08T21:07:26.985Z,17.9
2023-08-08T21:10:26.998Z,17.9
2023-08-08T21:13:27.068Z,17.9
2023-08-08T21:16:27.020Z,17.9
2023-08-08T21:19:26.982Z,17.9
2023-08-08T21:22:26.975Z,17.9
2023-08-08T21:25:26.996Z,17.9
2023-08-08T21:28:28.237Z,17.8
2023-08-08T21:31:27.030Z,17.9
2023-08-08T21:34:27.010Z,17.8
2023-08-08T21:37:27.009Z,17.8
2023-08-08T21:40:27.019Z,17.8
2023-08-08T21:43:27.056Z,17.8
2023-08-08T21:46:27.057Z,17.8
2023-08-08T21:49:27.018Z,17.8
2023-08-08T21:52:27.045Z,17.8
2023-08-08T21:55:27.030Z,17.8
2023-08-08T21:58:27.029Z,17.8
2023-08-08T22:01:27.033Z,17.8
2023-08-08T22:04:27.044Z,17.8
2023-08-08T22:07:27.038Z,17.8
2023-08-08T22:10:27.036Z,17.8
2023-08-08T22:13:27.045Z,17.8
2023-08-08T22:16:27.080Z,17.8
2023-08-08T22:19:27.044Z,17.8
2023-08-08T22:22:27.051Z,17.8
2023-08-08T22:25:27.049Z,17.8
2023-08-08T22:28:27.071Z,17.8
2023-08-08T22:31:27.056Z,17.8
2023-08-08T22:34:27.060Z,17.8
2023-08-08T22:37:27.067Z,17.8
2023-08-08T22:40:27.082Z,17.8
2023-08-08T22:43:27.134Z,17.8
2023-08-08T22:46:27.158Z,17.8
2023-08-08T22:49:27.121Z,17.8
2023-08-08T22:52:27.121Z,17.8
2023-08-08T22:55:27.141Z,17.8
2023-08-08T22:58:27.158Z,17.8
2023-08-08T23:01:27.193Z,17.8
2023-08-08T23:04:27.161Z,17.8
2023-08-08T23:07:27.157Z,17.8
2023-08-08T23:10:27.162Z,17.8
2023-08-08T23:13:27.197Z,17.8
2023-08-08T23:16:27.203Z,17.8
2023-08-08T23:19:27.210Z,17.8
2023-08-08T23:22:27.205Z,17.8
2023-08-08T23:25:27.238Z,17.8
2023-08-08T23:28:27.219Z,17.8
2023-08-08T23:31:27.240Z,17.8
2023-08-08T23:34:27.214Z,17.8
2023-08-08T23:37:27.216Z,17.8
2023-08-08T23:40:27.233Z,17.8
2023-08-08T23:43:27.239Z,17.8
2023-08-08T23:46:27.249Z,17.8
2023-08-08T23:49:27.260Z,17.8
2023-08-08T23:52:27.259Z,17.7
2023-08-08T23:55:27.261Z,17.7
2023-08-08T23:58:27.278Z,17.7
